createdAt,value
2023-02-03T00:01:30.052Z,9.19
2023-02-03T00:03:56.776Z,9.00
2023-02-03T00:06:36.377Z,8.84
2023-02-03T00:12:08.341Z,8.59
2023-02-03T00:14:36.027Z,8.56
2023-02-03T00:17:14.140Z,8.43
2023-02-03T00:19:46.736Z,8.41
2023-02-03T00:22:13.269Z,8.47
2023-02-03T00:24:42.141Z,8.40
2023-02-03T00:27:17.400Z,8.29
2023-02-03T00:29:43.940Z,8.29
2023-02-03T00:32:18.034Z,8.37
2023-02-03T00:34:45.484Z,8.34
2023-02-03T00:37:15.154Z,8.31
2023-02-03T00:39:43.771Z,8.32
2023-02-03T00:42:20.450Z,8.28
2023-02-03T00:44:46.983Z,8.35
2023-02-03T00:47:20.404Z,8.46
2023-02-03T00:49:46.912Z,8.51
2023-02-03T00:52:13.496Z,8.63
2023-02-03T00:54:42.517Z,8.54
2023-02-03T00:57:10.474Z,8.44
2023-02-03T00:59:37.363Z,8.56
2023-02-03T01:02:13.921Z,8.69
2023-02-03T01:04:50.426Z,8.82
2023-02-03T01:07:17.609Z,8.84
2023-02-03T01:09:51.843Z,8.84
2023-02-03T01:12:37.453Z,8.80
2023-02-03T01:15:05.075Z,8.76
2023-02-03T01:17:36.659Z,8.64
2023-02-03T01:20:07.492Z,8.61
2023-02-03T01:22:37.567Z,8.49
2023-02-03T01:25:11.873Z,8.61
2023-02-03T01:27:38.480Z,8.53
2023-02-03T01:30:05.559Z,8.42
2023-02-03T01:32:35.924Z,8.29
2023-02-03T01:35:12.935Z,8.24
2023-02-03T01:37:42.504Z,8.21
2023-02-03T01:40:09.730Z,8.16
2023-02-03T01:42:36.236Z,8.13
2023-02-03T01:45:02.718Z,8.05
2023-02-03T01:47:32.332Z,8.01
2023-02-03T01:50:24.206Z,7.96
2023-02-03T01:53:03.657Z,7.87
2023-02-03T01:55:41.090Z,7.84
2023-02-03T01:58:19.926Z,7.76
2023-02-03T02:00:54.176Z,7.72
2023-02-03T02:03:45.782Z,7.69
2023-02-03T02:06:13.877Z,7.62
2023-02-03T02:08:43.102Z,7.56
2023-02-03T02:11:09.629Z,7.52
2023-02-03T02:13:36.840Z,7.48
2023-02-03T02:16:18.309Z,7.45
2023-02-03T02:19:00.075Z,7.48
2023-02-03T02:21:46.325Z,7.50
2023-02-03T02:24:34.559Z,7.42
2023-02-03T02:27:43.597Z,7.43
2023-02-03T02:30:37.375Z,7.36
2023-02-03T02:33:10.373Z,7.30
2023-02-03T02:35:46.095Z,7.33
2023-02-03T02:38:36.825Z,7.38
2023-02-03T02:41:25.688Z,7.40
2023-02-03T02:44:07.031Z,7.47
2023-02-03T02:46:46.285Z,7.41
2023-02-03T02:49:30.629Z,7.39
2023-02-03T02:52:00.177Z,7.26
2023-02-03T02:54:37.632Z,7.23
2023-02-03T02:57:17.065Z,7.22
2023-02-03T02:59:43.654Z,7.18
2023-02-03T03:02:11.756Z,7.13
2023-02-03T03:04:48.791Z,7.08
2023-02-03T03:07:24.157Z,7.08
2023-02-03T03:10:01.319Z,7.06
2023-02-03T03:12:44.695Z,7.02
2023-02-03T03:15:19.093Z,6.94
2023-02-03T03:17:54.895Z,6.94
2023-02-03T03:20:28.408Z,7.08
2023-02-03T03:23:19.508Z,7.10
2023-02-03T03:25:51.974Z,7.05
2023-02-03T03:28:28.016Z,6.94
2023-02-03T03:30:56.914Z,6.77
2023-02-03T03:33:23.616Z,6.67
2023-02-03T03:36:18.633Z,6.55
2023-02-03T03:39:08.744Z,6.57
2023-02-03T03:41:54.916Z,6.45
2023-02-03T03:44:26.663Z,6.43
2023-02-03T03:47:26.486Z,6.39
2023-02-03T03:50:00.218Z,6.27
2023-02-03T03:52:32.171Z,6.24
2023-02-03T03:55:00.743Z,6.25
2023-02-03T03:57:36.558Z,6.32
2023-02-03T04:00:05.722Z,6.31
2023-02-03T04:02:50.763Z,6.16
2023-02-03T04:05:17.570Z,6.20
2023-02-03T04:07:46.204Z,6.23
2023-02-03T04:10:30.463Z,6.19
2023-02-03T04:13:07.874Z,6.14
2023-02-03T04:15:34.779Z,6.06
2023-02-03T04:18:01.668Z,5.94
2023-02-03T04:20:29.755Z,5.78
2023-02-03T04:22:56.709Z,5.91
2023-02-03T04:25:23.670Z,6.02
2023-02-03T04:27:52.771Z,5.95
2023-02-03T04:30:19.494Z,5.82
2023-02-03T04:32:46.964Z,5.74
2023-02-03T04:35:13.979Z,5.74
2023-02-03T04:37:43.429Z,5.65
2023-02-03T04:40:14.771Z,5.48
2023-02-03T04:42:48.727Z,5.30
2023-02-03T04:45:15.901Z,5.20
2023-02-03T04:47:42.589Z,5.26
2023-02-03T04:50:10.256Z,5.31
2023-02-03T04:52:40.784Z,5.29
2023-02-03T04:55:15.884Z,5.16
2023-02-03T04:57:49.572Z,5.20
2023-02-03T05:00:19.741Z,5.19
2023-02-03T05:02:46.348Z,5.21
2023-02-03T05:05:18.610Z,5.23
2023-02-03T05:07:56.035Z,5.22
2023-02-03T05:10:31.076Z,5.20
2023-02-03T05:13:01.095Z,5.08
2023-02-03T05:15:27.775Z,5.08
2023-02-03T05:18:00.330Z,5.13
2023-02-03T05:20:27.078Z,5.15
2023-02-03T05:23:00.045Z,5.15
2023-02-03T05:25:41.272Z,5.10
2023-02-03T05:28:09.120Z,5.06
2023-02-03T05:30:44.366Z,5.01
2023-02-03T05:33:13.947Z,5.03
2023-02-03T05:35:45.893Z,4.97
2023-02-03T05:38:18.966Z,5.00
2023-02-03T05:40:54.820Z,5.03
2023-02-03T05:43:24.887Z,5.00
2023-02-03T05:45:51.492Z,5.05
2023-02-03T05:48:18.035Z,5.12
2023-02-03T05:50:51.746Z,5.28
2023-02-03T05:53:19.019Z,5.31
2023-02-03T05:55:50.139Z,5.30
2023-02-03T05:58:16.659Z,5.40
2023-02-03T06:00:43.447Z,5.38
2023-02-03T06:03:19.032Z,5.36
2023-02-03T06:05:45.585Z,5.32
2023-02-03T06:08:21.710Z,5.32
2023-02-03T06:10:48.274Z,5.27
2023-02-03T06:13:19.006Z,4.90
2023-02-03T06:15:56.147Z,4.90
2023-02-03T06:18:24.516Z,4.96
2023-02-03T06:21:00.853Z,5.02
2023-02-03T06:23:28.297Z,4.95
2023-02-03T06:26:01.217Z,4.95
2023-02-03T06:28:30.363Z,4.83
2023-02-03T06:30:57.059Z,4.55
2023-02-03T06:33:26.631Z,4.38
2023-02-03T06:35:54.715Z,4.34
2023-02-03T06:38:33.432Z,4.51
2023-02-03T06:44:10.382Z,4.59
2023-02-03T06:49:24.036Z,4.55
2023-02-03T06:51:55.740Z,4.48
2023-02-03T06:54:27.536Z,4.31
2023-02-03T06:57:03.262Z,4.30
2023-02-03T06:59:46.994Z,4.35
2023-02-03T07:02:20.905Z,4.14
2023-02-03T07:05:17.138Z,4.37
2023-02-03T07:07:46.543Z,3.77
2023-02-03T07:10:15.587Z,3.39
2023-02-03T07:12:42.180Z,3.34
2023-02-03T07:15:16.415Z,3.63
2023-02-03T07:17:47.987Z,3.93
2023-02-03T07:20:24.933Z,4.08
2023-02-03T07:22:56.779Z,4.07
2023-02-03T07:25:33.497Z,4.15
2023-02-03T07:28:05.472Z,4.22
2023-02-03T07:30:32.127Z,4.25
2023-02-03T07:33:06.576Z,4.36
2023-02-03T07:38:22.024Z,4.47
2023-02-03T07:41:06.872Z,4.47
2023-02-03T07:43:36.305Z,4.45
2023-02-03T07:46:03.020Z,4.42
2023-02-03T07:48:38.469Z,4.52
2023-02-03T07:51:06.067Z,4.67
2023-02-03T07:53:33.318Z,4.68
2023-02-03T07:56:03.337Z,4.79
2023-02-03T07:58:33.152Z,4.86
2023-02-03T08:01:00.202Z,4.99
2023-02-03T08:03:29.746Z,5.10
2023-02-03T08:06:08.959Z,5.29
2023-02-03T08:08:36.181Z,5.35
2023-02-03T08:11:02.755Z,5.46
2023-02-03T08:13:33.180Z,5.57
2023-02-03T08:16:04.052Z,5.50
2023-02-03T08:18:32.638Z,5.58
2023-02-03T08:21:03.689Z,6.30
2023-02-03T08:23:30.916Z,5.91
2023-02-03T08:26:03.086Z,5.59
2023-02-03T08:28:35.498Z,5.56
2023-02-03T08:31:04.195Z,5.78
2023-02-03T08:33:31.444Z,5.50
2023-02-03T08:35:58.063Z,5.44
2023-02-03T08:38:27.602Z,5.43
2023-02-03T08:40:54.277Z,5.46
2023-02-03T08:43:20.911Z,5.64
2023-02-03T08:45:50.619Z,5.71
2023-02-03T08:48:17.297Z,6.21
2023-02-03T08:50:44.470Z,6.36
2023-02-03T08:53:11.421Z,6.30
2023-02-03T08:55:41.109Z,6.63
2023-02-03T08:58:07.688Z,6.95
2023-02-03T09:00:36.541Z,6.48
2023-02-03T09:03:03.169Z,7.00
2023-02-03T09:05:32.943Z,6.34
2023-02-03T09:07:59.752Z,6.16
2023-02-03T09:10:29.706Z,6.43
2023-02-03T09:12:57.183Z,6.38
2023-02-03T09:15:23.969Z,6.37
2023-02-03T09:17:50.569Z,6.63
2023-02-03T09:20:23.070Z,6.92
2023-02-03T09:22:49.788Z,7.03
2023-02-03T09:25:16.621Z,7.08
2023-02-03T09:27:46.573Z,6.72
2023-02-03T09:30:19.337Z,6.53
2023-02-03T09:32:46.009Z,6.46
2023-02-03T09:35:12.577Z,6.50
2023-02-03T09:37:39.181Z,6.64
2023-02-03T09:40:06.657Z,6.74
2023-02-03T09:43:02.255Z,6.82
2023-02-03T09:45:30.888Z,7.07
2023-02-03T09:48:05.019Z,7.00
2023-02-03T09:50:35.710Z,7.40
2023-02-03T09:53:12.615Z,7.63
2023-02-03T09:55:42.573Z,8.05
2023-02-03T09:58:20.722Z,8.07
2023-02-03T10:00:59.798Z,7.86
2023-02-03T10:03:36.828Z,7.41
2023-02-03T10:06:28.264Z,7.36
2023-02-03T10:09:00.755Z,7.60
2023-02-03T10:11:41.536Z,7.85
2023-02-03T10:14:24.205Z,8.20
2023-02-03T10:17:40.101Z,8.22
2023-02-03T10:20:10.094Z,8.36
2023-02-03T10:23:18.021Z,8.04
2023-02-03T10:25:57.339Z,7.75
2023-02-03T10:28:41.768Z,7.92
2023-02-03T10:31:32.658Z,7.92
2023-02-03T10:37:14.553Z,7.79
2023-02-03T10:39:58.640Z,7.75
2023-02-03T10:42:38.069Z,7.94
2023-02-03T10:45:05.429Z,8.07
2023-02-03T10:47:41.962Z,7.90
2023-02-03T10:50:18.834Z,8.36
2023-02-03T10:52:45.844Z,8.44
2023-02-03T10:55:21.556Z,8.15
2023-02-03T10:57:48.553Z,8.36
2023-02-03T11:00:19.579Z,8.18
2023-02-03T11:03:03.267Z,7.98
2023-02-03T11:05:33.390Z,7.95
2023-02-03T11:08:29.531Z,7.91
2023-02-03T11:11:31.039Z,8.32
2023-02-03T11:14:07.832Z,8.18
2023-02-03T11:16:41.696Z,8.40
2023-02-03T11:19:28.452Z,8.68
2023-02-03T11:22:03.284Z,8.54
2023-02-03T11:24:46.353Z,8.47
2023-02-03T11:27:18.558Z,8.53
2023-02-03T11:29:54.159Z,8.62
2023-02-03T11:32:33.648Z,8.53
2023-02-03T11:35:27.958Z,8.96
2023-02-03T11:37:57.187Z,8.85
2023-02-03T11:40:29.370Z,8.81
2023-02-03T11:42:56.131Z,8.96
2023-02-03T11:45:41.714Z,9.04
2023-02-03T11:48:13.319Z,9.13
2023-02-03T11:50:52.130Z,8.81
2023-02-03T11:53:30.147Z,8.97
2023-02-03T11:56:28.953Z,8.97
2023-02-03T11:59:31.546Z,9.13
2023-02-03T12:02:23.351Z,8.72
2023-02-03T12:05:07.264Z,8.53
2023-02-03T12:07:46.901Z,8.57
2023-02-03T12:10:31.503Z,8.96
2023-02-03T12:13:26.673Z,8.76
2023-02-03T12:16:25.991Z,8.99
2023-02-03T12:19:20.394Z,8.75
2023-02-03T12:22:08.631Z,8.77
2023-02-03T12:25:08.990Z,8.64
2023-02-03T12:28:20.671Z,8.88
2023-02-03T12:31:21.240Z,9.18
2023-02-03T12:36:42.929Z,9.01
2023-02-03T12:39:47.077Z,8.89
2023-02-03T12:42:50.444Z,9.11
2023-02-03T12:45:38.158Z,9.11
2023-02-03T12:48:19.285Z,9.20
2023-02-03T12:51:02.481Z,9.11
2023-02-03T12:53:34.010Z,9.05
2023-02-03T12:56:08.703Z,9.24
2023-02-03T12:58:50.533Z,9.24
2023-02-03T13:02:03.321Z,9.46
2023-02-03T13:05:00.943Z,9.59
2023-02-03T13:08:03.858Z,10.16
2023-02-03T13:10:50.033Z,9.82
2023-02-03T13:13:41.777Z,9.94
2023-02-03T13:16:37.258Z,9.81
2023-02-03T13:19:17.581Z,9.81
2023-02-03T13:21:53.405Z,9.86
2023-02-03T13:24:30.217Z,10.10
2023-02-03T13:27:17.630Z,10.16
2023-02-03T13:30:04.946Z,10.29
2023-02-03T13:32:56.180Z,10.25
2023-02-03T13:35:34.365Z,10.32
2023-02-03T13:38:16.266Z,10.34
2023-02-03T13:41:17.658Z,10.37
2023-02-03T13:43:50.487Z,10.23
2023-02-03T13:46:32.300Z,10.27
2023-02-03T13:49:10.708Z,10.38
2023-02-03T13:51:46.974Z,10.53
2023-02-03T13:54:26.098Z,10.63
2023-02-03T13:57:20.431Z,10.69
2023-02-03T13:59:47.233Z,10.65
2023-02-03T14:02:19.839Z,10.62
2023-02-03T14:04:46.498Z,10.52
2023-02-03T14:07:39.003Z,10.69
2023-02-03T14:10:14.790Z,10.63
2023-02-03T14:12:53.683Z,10.96
2023-02-03T14:15:52.282Z,10.76
2023-02-03T14:18:54.944Z,10.88
2023-02-03T14:21:24.641Z,10.89
2023-02-03T14:24:02.457Z,11.02
2023-02-03T14:26:34.118Z,10.97
2023-02-03T14:29:02.096Z,10.83
2023-02-03T14:31:28.847Z,10.78
2023-02-03T14:34:17.595Z,10.71
2023-02-03T14:36:50.719Z,10.77
2023-02-03T14:39:24.570Z,10.90
2023-02-03T14:42:16.214Z,11.08
2023-02-03T14:45:20.628Z,11.10
2023-02-03T14:47:52.658Z,11.03
2023-02-03T14:50:22.388Z,10.93
2023-02-03T14:52:58.909Z,10.82
2023-02-03T14:56:10.150Z,10.82
2023-02-03T14:59:04.911Z,10.91
2023-02-03T15:01:51.628Z,10.90
2023-02-03T15:04:28.709Z,10.82
2023-02-03T15:07:04.706Z,10.81
2023-02-03T15:09:47.451Z,10.78
2023-02-03T15:12:24.335Z,10.68
2023-02-03T15:14:51.011Z,10.62
2023-02-03T15:17:27.498Z,10.62
2023-02-03T15:19:54.627Z,10.49
2023-02-03T15:22:28.767Z,10.45
2023-02-03T15:25:03.771Z,10.44
2023-02-03T15:27:36.283Z,10.55
2023-02-03T15:30:40.180Z,10.56
2023-02-03T15:33:39.776Z,10.52
2023-02-03T15:36:15.314Z,10.40
2023-02-03T15:38:50.557Z,10.42
2023-02-03T15:41:25.436Z,10.35
2023-02-03T15:44:01.285Z,10.39
2023-02-03T15:46:42.097Z,10.28
2023-02-03T15:49:18.187Z,10.15
2023-02-03T15:52:03.113Z,10.17
2023-02-03T15:55:20.882Z,10.11
2023-02-03T15:57:52.850Z,10.16
2023-02-03T16:00:41.376Z,10.14
2023-02-03T16:03:40.308Z,10.09
2023-02-03T16:06:31.367Z,10.03
2023-02-03T16:08:58.878Z,10.01
2023-02-03T16:11:30.096Z,9.98
2023-02-03T16:13:58.002Z,9.90
2023-02-03T16:17:03.886Z,9.85
2023-02-03T16:19:36.714Z,9.76
2023-02-03T16:22:23.117Z,9.70
2023-02-03T16:24:49.759Z,9.65
2023-02-03T16:27:25.561Z,9.55
2023-02-03T16:29:56.243Z,9.51
2023-02-03T16:32:23.208Z,9.55
2023-02-03T16:34:50.747Z,9.51
2023-02-03T16:37:42.553Z,9.48
2023-02-03T16:40:12.608Z,9.43
2023-02-03T16:42:45.430Z,9.36
2023-02-03T16:45:19.226Z,9.32
2023-02-03T16:47:47.221Z,9.29
2023-02-03T16:50:32.816Z,9.22
2023-02-03T16:53:04.667Z,9.25
2023-02-03T16:55:34.428Z,9.26
2023-02-03T16:58:04.572Z,9.16
2023-02-03T17:00:46.984Z,9.16
2023-02-03T17:03:28.236Z,9.05
2023-02-03T17:05:56.242Z,9.04
2023-02-03T17:08:25.269Z,9.00
2023-02-03T17:10:54.970Z,8.89
2023-02-03T17:13:23.183Z,8.74
2023-02-03T17:15:52.441Z,8.69
2023-02-03T17:18:24.889Z,8.58
2023-02-03T17:20:53.632Z,8.53
2023-02-03T17:23:27.350Z,8.48
2023-02-03T17:26:04.706Z,8.41
2023-02-03T17:28:31.519Z,8.38
2023-02-03T17:31:11.285Z,8.34
2023-02-03T17:33:40.952Z,8.29
2023-02-03T17:36:19.199Z,8.26
2023-02-03T17:55:14.771Z,8.20
2023-02-03T17:57:45.821Z,8.29
2023-02-03T18:00:13.135Z,8.38
2023-02-03T18:02:44.084Z,8.35
2023-02-03T18:05:13.729Z,8.26
2023-02-03T18:07:40.529Z,8.17
2023-02-03T18:10:30.627Z,8.08
2023-02-03T18:12:57.356Z,8.02
2023-02-03T18:15:23.984Z,7.99
2023-02-03T18:17:54.674Z,8.00
2023-02-03T18:20:21.488Z,8.02
2023-02-03T18:22:48.328Z,8.02
2023-02-03T18:25:21.234Z,8.00
2023-02-03T18:27:55.325Z,8.02
2023-02-03T18:30:22.006Z,8.04
2023-02-03T18:32:52.107Z,8.06
2023-02-03T18:35:21.764Z,8.04
2023-02-03T18:37:53.941Z,8.08
2023-02-03T18:40:23.653Z,8.13
2023-02-03T18:42:51.953Z,8.13
2023-02-03T18:45:18.677Z,8.16
2023-02-03T18:47:45.639Z,8.16
2023-02-03T18:50:12.276Z,8.27
2023-02-03T18:52:38.849Z,8.33
2023-02-03T18:55:19.877Z,8.30
2023-02-03T18:57:46.496Z,8.24
2023-02-03T19:00:32.245Z,8.25
2023-02-03T19:03:02.774Z,8.28
2023-02-03T19:05:29.517Z,8.24
2023-02-03T19:08:00.747Z,8.21
2023-02-03T19:10:28.143Z,8.19
2023-02-03T19:12:55.028Z,8.15
2023-02-03T19:15:23.925Z,8.19
2023-02-03T19:17:50.602Z,8.18
2023-02-03T19:20:20.419Z,8.16
2023-02-03T19:22:50.309Z,8.12
2023-02-03T19:25:29.542Z,8.08
2023-02-03T19:27:57.492Z,8.09
2023-02-03T19:30:27.577Z,8.09
2023-02-03T19:32:56.965Z,8.15
2023-02-03T19:35:25.028Z,8.16
2023-02-03T19:40:38.446Z,8.11
2023-02-03T19:43:05.187Z,8.12
2023-02-03T19:45:33.482Z,8.10
2023-02-03T19:48:00.408Z,8.08
2023-02-03T19:53:18.991Z,8.02
2023-02-03T19:55:46.590Z,8.00
2023-02-03T19:58:22.532Z,7.94
2023-02-03T20:00:56.989Z,7.92
2023-02-03T20:03:30.160Z,7.94
2023-02-03T20:05:57.581Z,7.87
2023-02-03T20:08:24.947Z,7.93
2023-02-03T20:10:54.783Z,8.05
2023-02-03T20:13:21.518Z,8.17
2023-02-03T20:15:48.243Z,8.28
2023-02-03T20:18:15.111Z,8.55
2023-02-03T20:20:42.016Z,8.59
2023-02-03T20:23:08.708Z,8.63
2023-02-03T20:25:42.820Z,8.71
2023-02-03T20:28:13.235Z,8.72
2023-02-03T20:30:46.522Z,8.80
2023-02-03T20:33:19.751Z,8.90
2023-02-03T20:35:54.868Z,8.94
2023-02-03T20:38:21.661Z,8.83
2023-02-03T20:41:00.177Z,8.78
2023-02-03T20:43:42.283Z,8.78
2023-02-03T20:46:21.999Z,8.88
2023-02-03T20:48:52.598Z,9.24
2023-02-03T20:51:19.852Z,9.36
2023-02-03T20:53:51.869Z,9.50
2023-02-03T20:56:21.097Z,9.57
2023-02-03T20:58:47.942Z,9.60
2023-02-03T21:01:24.506Z,9.66
2023-02-03T21:03:53.417Z,9.65
2023-02-03T21:06:20.814Z,9.70
2023-02-03T21:08:52.950Z,9.66
2023-02-03T21:11:32.810Z,9.73
2023-02-03T21:14:02.469Z,9.84
2023-02-03T21:16:38.289Z,9.96
2023-02-03T21:19:05.415Z,9.94
2023-02-03T21:21:39.877Z,9.99
2023-02-03T21:24:38.741Z,9.98
2023-02-03T21:27:34.166Z,9.96
2023-02-03T21:30:03.810Z,9.82
2023-02-03T21:32:42.656Z,9.98
2023-02-03T21:35:42.754Z,10.09
2023-02-03T21:38:46.096Z,10.01
2023-02-03T21:41:20.806Z,9.92
2023-02-03T21:43:50.923Z,9.84
2023-02-03T21:46:26.706Z,9.78
2023-02-03T21:49:02.551Z,9.66
2023-02-03T21:51:40.631Z,9.46
2023-02-03T21:54:28.036Z,9.58
2023-02-03T21:56:54.797Z,9.50
2023-02-03T21:59:24.141Z,9.60
2023-02-03T22:01:51.754Z,9.39
2023-02-03T22:04:20.158Z,9.43
2023-02-03T22:06:53.264Z,9.50
2023-02-03T22:09:27.439Z,9.50
2023-02-03T22:11:55.989Z,9.50
2023-02-03T22:14:23.135Z,9.58
2023-02-03T22:17:00.936Z,9.60
2023-02-03T22:19:33.435Z,9.65
2023-02-03T22:22:10.534Z,9.86
2023-02-03T22:24:57.648Z,9.61
2023-02-03T22:27:24.260Z,9.72
2023-02-03T22:29:50.981Z,9.46
2023-02-03T22:32:17.581Z,9.35
2023-02-03T22:34:44.187Z,9.17
2023-02-03T22:37:10.786Z,9.18
2023-02-03T22:39:37.343Z,9.02
2023-02-03T22:42:04.265Z,8.90
2023-02-03T22:44:33.476Z,8.90
2023-02-03T22:47:02.359Z,8.82
2023-02-03T22:49:31.931Z,8.71
2023-02-03T22:51:58.507Z,8.59
2023-02-03T22:54:31.748Z,8.56
2023-02-03T22:57:00.843Z,8.50
2023-02-03T22:59:38.893Z,8.39
2023-02-03T23:02:07.520Z,8.37
2023-02-03T23:04:34.310Z,8.38
2023-02-03T23:07:03.220Z,8.30
2023-02-03T23:09:36.552Z,8.20
2023-02-03T23:12:11.209Z,8.23
2023-02-03T23:14:41.417Z,8.15
2023-02-03T23:17:08.043Z,8.08
2023-02-03T23:19:41.491Z,8.04
2023-02-03T23:22:18.604Z,7.98
2023-02-03T23:24:46.239Z,7.94
2023-02-03T23:27:17.098Z,7.91
2023-02-03T23:29:43.725Z,7.87
2023-02-03T23:32:10.349Z,7.83
2023-02-03T23:34:49.018Z,7.74
2023-02-03T23:37:21.130Z,7.68
2023-02-03T23:39:50.028Z,7.67
2023-02-03T23:42:16.810Z,7.63
2023-02-03T23:44:46.129Z,7.59
2023-02-03T23:47:15.351Z,7.53
2023-02-03T23:49:41.992Z,7.48
2023-02-03T23:52:08.642Z,7.44
2023-02-03T23:54:37.874Z,7.44
2023-02-03T23:59:47.664Z,7.22
